Time;durP1;ratioP1;P1;durP2;ratioP2;P2;SDS_P1;SDS_P2;PMS_P1;PMS_P2;Temp;Humidity;BMP_temperature;BMP_pressure;BME280_temperature;BME280_humidity;BME280_pressure;Samples;Min_cycle;Max_cycle;Signal;HPM_P1;HPM_P2
2023/08/08 00:01:20;;;;;;;2.40;1.87;;;20.10;65.90;;;;;;5012301;28;20199;-72
2023/08/08 00:03:46;;;;;;;2.30;1.77;;;20.00;66.10;;;;;;5011759;28;20200;-72
2023/08/08 00:06:13;;;;;;;1.80;1.50;;;20.10;66.30;;;;;;5012043;28;20203;-72
2023/08/08 00:08:41;;;;;;;1.97;1.70;;;20.10;66.10;;;;;;5012031;28;20233;-72
2023/08/08 00:11:08;;;;;;;2.17;1.70;;;20.10;66.30;;;;;;5012262;28;20203;-72
2023/08/08 00:13:34;;;;;;;1.60;1.50;;;20.00;66.20;;;;;;5012337;28;20235;-71
2023/08/08 00:16:03;;;;;;;3.03;1.47;;;20.00;66.30;;;;;;5011391;28;20235;-72
2023/08/08 00:18:30;;;;;;;1.67;1.40;;;20.00;66.50;;;;;;5011585;28;20277;-72
2023/08/08 00:20:57;;;;;;;1.70;1.60;;;20.10;66.50;;;;;;5012320;28;20191;-72
2023/08/08 00:23:23;;;;;;;1.47;1.37;;;20.10;66.40;;;;;;5012338;28;20215;-72
2023/08/08 00:25:51;;;;;;;3.53;1.53;;;20.20;66.40;;;;;;5011785;28;20302;-72
2023/08/08 00:28:18;;;;;;;1.47;1.37;;;20.10;66.30;;;;;;5011569;28;20203;-72
2023/08/08 00:30:46;;;;;;;2.13;1.77;;;20.10;66.50;;;;;;5011803;28;20234;-72
2023/08/08 00:33:14;;;;;;;2.73;1.70;;;20.20;66.50;;;;;;5011670;28;20210;-72
2023/08/08 00:35:41;;;;;;;2.70;1.60;;;20.20;66.50;;;;;;5011959;28;20241;-71
2023/08/08 00:38:07;;;;;;;3.03;1.80;;;20.10;66.50;;;;;;5015610;28;20711;-72
2023/08/08 00:40:34;;;;;;;2.43;1.70;;;20.10;66.60;;;;;;5011818;28;20310;-72
2023/08/08 00:43:01;;;;;;;2.57;1.60;;;20.10;66.70;;;;;;5003051;28;20214;-72
2023/08/08 00:45:28;;;;;;;2.40;1.50;;;20.10;66.70;;;;;;4992019;28;20208;-72
2023/08/08 00:47:55;;;;;;;3.07;1.70;;;20.10;66.90;;;;;;4992768;28;20223;-72
2023/08/08 00:50:24;;;;;;;2.93;1.73;;;20.10;67.60;;;;;;4992213;28;20672;-72
2023/08/08 00:52:51;;;;;;;2.57;1.70;;;20.10;66.90;;;;;;4993539;28;20231;-72
2023/08/08 00:55:20;;;;;;;2.97;1.70;;;20.10;67.00;;;;;;4995332;28;20212;-72
2023/08/08 00:57:47;;;;;;;2.53;1.80;;;20.10;67.00;;;;;;4995417;28;20290;-72
2023/08/08 01:00:14;;;;;;;1.83;1.60;;;20.10;67.10;;;;;;4995730;28;20208;-72
2023/08/08 01:02:41;;;;;;;1.73;1.63;;;20.10;67.20;;;;;;5000953;28;20282;-72
2023/08/08 01:05:09;;;;;;;1.97;1.67;;;20.10;67.10;;;;;;5014597;28;20689;-72
2023/08/08 01:07:48;;;;;;;1.60;1.50;;;20.10;67.20;;;;;;5014820;28;20210;-72
2023/08/08 01:10:17;;;;;;;2.17;1.60;;;20.10;67.20;;;;;;5014941;28;20191;-72
2023/08/08 01:12:48;;;;;;;1.67;1.53;;;20.10;67.20;;;;;;5014638;28;20211;-72
2023/08/08 01:15:15;;;;;;;2.20;1.60;;;20.10;67.30;;;;;;5014771;28;20239;-72
2023/08/08 01:17:43;;;;;;;3.97;1.60;;;20.10;67.30;;;;;;5012825;28;20314;-72
2023/08/08 01:20:13;;;;;;;2.10;1.90;;;20.00;67.40;;;;;;5013548;28;20712;-72
2023/08/08 01:22:59;;;;;;;2.23;1.83;;;20.00;67.50;;;;;;5014768;28;20266;-72
2023/08/08 01:25:27;;;;;;;1.43;1.33;;;19.90;67.80;;;;;;5014617;28;20234;-71
2023/08/08 01:27:54;;;;;;;2.60;1.80;;;20.00;67.60;;;;;;5014123;28;20216;-72
2023/08/08 01:30:21;;;;;;;2.10;1.60;;;20.00;67.60;;;;;;5014713;28;20211;-72
2023/08/08 01:32:48;;;;;;;3.63;1.60;;;20.00;67.80;;;;;;5014553;28;20219;-72
2023/08/08 01:35:15;;;;;;;2.57;1.77;;;19.90;67.70;;;;;;5014296;28;20238;-72
2023/08/08 01:37:47;;;;;;;1.50;1.40;;;19.90;67.80;;;;;;5014401;28;20226;-72
2023/08/08 01:40:17;;;;;;;2.00;1.67;;;19.90;68.10;;;;;;5014137;28;20202;-72
2023/08/08 01:42:48;;;;;;;2.40;1.70;;;19.90;68.20;;;;;;5019736;28;20318;-71
2023/08/08 01:45:16;;;;;;;1.97;1.77;;;19.90;68.40;;;;;;5014579;28;20199;-72
2023/08/08 01:47:43;;;;;;;2.47;1.63;;;19.80;68.60;;;;;;5016288;28;20227;-72
2023/08/08 01:50:10;;;;;;;1.60;1.50;;;19.80;68.60;;;;;;5020970;28;20258;-72
2023/08/08 01:52:37;;;;;;;1.63;1.53;;;19.80;68.70;;;;;;5014110;28;20234;-71
2023/08/08 01:55:05;;;;;;;2.53;1.53;;;19.80;68.70;;;;;;5014292;28;20333;-72
2023/08/08 01:57:32;;;;;;;2.20;1.73;;;19.90;68.80;;;;;;5013893;28;20211;-72
2023/08/08 02:00:00;;;;;;;2.10;1.90;;;19.80;68.60;;;;;;5013907;28;20231;-72
2023/08/08 02:02:30;;;;;;;3.53;1.83;;;19.80;68.80;;;;;;5014120;28;20242;-72
2023/08/08 02:04:59;;;;;;;3.60;1.57;;;19.80;69.50;;;;;;5013901;28;20231;-72
2023/08/08 02:07:26;;;;;;;4.97;2.23;;;19.80;68.90;;;;;;5013622;28;20254;-72
2023/08/08 02:09:53;;;;;;;2.20;1.90;;;19.70;68.90;;;;;;5013477;28;20237;-72
2023/08/08 02:12:19;;;;;;;2.60;1.50;;;19.70;69.10;;;;;;5014125;28;20191;-72
2023/08/08 02:14:49;;;;;;;6.40;1.77;;;19.60;69.10;;;;;;5013541;28;20214;-72
2023/08/08 02:17:17;;;;;;;2.53;1.50;;;19.60;70.20;;;;;;5019112;28;20235;-71
2023/08/08 02:19:44;;;;;;;1.93;1.43;;;19.60;69.40;;;;;;5016110;28;20243;-72
2023/08/08 02:22:11;;;;;;;1.67;1.57;;;19.70;69.60;;;;;;5013680;28;20357;-72
2023/08/08 02:24:38;;;;;;;1.90;1.70;;;19.60;69.40;;;;;;5013541;28;20214;-72
2023/08/08 02:27:05;;;;;;;4.30;1.73;;;19.70;69.80;;;;;;5013188;28;20231;-72
2023/08/08 02:29:32;;;;;;;2.30;1.47;;;19.60;69.50;;;;;;5013419;28;20207;-72
2023/08/08 02:31:59;;;;;;;2.20;1.80;;;19.60;69.60;;;;;;5013596;28;20635;-72
2023/08/08 02:34:27;;;;;;;2.00;1.60;;;19.50;69.80;;;;;;5013596;28;20223;-72
2023/08/08 02:36:54;;;;;;;2.90;2.00;;;19.50;70.10;;;;;;5013062;28;20217;-72
2023/08/08 02:39:20;;;;;;;2.77;1.50;;;19.50;70.30;;;;;;5012713;28;20219;-72
2023/08/08 02:41:49;;;;;;;4.00;1.73;;;19.50;70.30;;;;;;5013524;28;20225;-72
2023/08/08 02:44:16;;;;;;;2.00;1.53;;;19.60;70.40;;;;;;5012558;28;20477;-72
2023/08/08 02:46:43;;;;;;;3.47;2.00;;;19.60;70.50;;;;;;5013239;28;20222;-72
2023/08/08 02:49:09;;;;;;;1.87;1.57;;;19.50;70.50;;;;;;5012871;28;20227;-72
2023/08/08 02:51:38;;;;;;;2.80;1.90;;;19.50;70.50;;;;;;5013133;28;20231;-72
2023/08/08 02:54:07;;;;;;;2.90;1.83;;;19.50;70.80;;;;;;5012920;28;20257;-73
2023/08/08 02:56:34;;;;;;;2.33;1.83;;;19.50;71.20;;;;;;5012563;28;20706;-72
2023/08/08 02:59:01;;;;;;;1.80;1.60;;;19.50;71.30;;;;;;5012860;28;20219;-72
2023/08/08 03:01:28;;;;;;;2.60;1.77;;;19.50;71.50;;;;;;5013099;28;20219;-71
2023/08/08 03:03:54;;;;;;;2.00;1.67;;;19.40;71.60;;;;;;5012961;28;20215;-72
2023/08/08 03:06:21;;;;;;;2.63;1.87;;;19.40;71.80;;;;;;5012403;28;20207;-72
2023/08/08 03:08:49;;;;;;;2.90;2.07;;;19.50;71.70;;;;;;5012546;28;20269;-72
2023/08/08 03:11:16;;;;;;;4.50;1.67;;;19.50;71.60;;;;;;5012573;28;20257;-72
2023/08/08 03:13:43;;;;;;;2.23;1.80;;;19.50;71.40;;;;;;5012325;28;20203;-72
2023/08/08 03:16:13;;;;;;;1.60;1.50;;;19.50;71.60;;;;;;5012259;28;20235;-72
2023/08/08 03:18:39;;;;;;;2.83;1.60;;;19.50;71.90;;;;;;5012187;28;20594;-72
2023/08/08 03:21:06;;;;;;;2.17;1.67;;;19.40;71.90;;;;;;5012757;28;20211;-72
2023/08/08 03:23:33;;;;;;;2.03;1.50;;;19.40;72.00;;;;;;5012625;28;20207;-72
2023/08/08 03:26:01;;;;;;;3.63;1.90;;;19.50;72.00;;;;;;5012042;28;20707;-72
2023/08/08 03:28:31;;;;;;;2.73;1.87;;;19.40;71.80;;;;;;5012153;28;20783;-72
2023/08/08 03:31:02;;;;;;;2.00;1.73;;;19.40;71.90;;;;;;5012657;28;20203;-72
2023/08/08 03:33:31;;;;;;;3.17;1.97;;;19.30;72.00;;;;;;5012473;28;20334;-71
2023/08/08 03:36:01;;;;;;;1.60;1.50;;;19.30;72.10;;;;;;5012204;28;20642;-72
2023/08/08 03:38:28;;;;;;;2.13;1.57;;;19.30;72.10;;;;;;5011545;28;20690;-72
2023/08/08 03:40:56;;;;;;;2.03;1.40;;;19.30;72.10;;;;;;5012297;28;20211;-71
2023/08/08 03:43:24;;;;;;;2.70;1.77;;;19.30;72.80;;;;;;5011933;28;20218;-72
2023/08/08 03:45:51;;;;;;;1.90;1.77;;;19.40;72.10;;;;;;5012478;28;20785;-72
2023/08/08 03:48:18;;;;;;;2.73;1.70;;;19.40;72.10;;;;;;5011785;28;20210;-72
2023/08/08 03:50:46;;;;;;;3.67;1.57;;;19.30;72.10;;;;;;5012368;28;20241;-72
2023/08/08 03:53:13;;;;;;;1.90;1.70;;;19.30;72.20;;;;;;4994653;28;20266;-72
2023/08/08 03:55:39;;;;;;;2.47;1.90;;;19.30;72.20;;;;;;5012154;28;20238;-72
2023/08/08 03:58:06;;;;;;;1.80;1.60;;;19.30;72.30;;;;;;5012089;28;20457;-72
2023/08/08 04:00:35;;;;;;;2.17;1.90;;;19.30;72.60;;;;;;5011837;28;20217;-73
2023/08/08 04:03:01;;;;;;;2.30;1.60;;;19.20;72.60;;;;;;5012492;28;20207;-72
2023/08/08 04:05:31;;;;;;;2.07;1.50;;;19.20;72.70;;;;;;5011913;28;20207;-72
2023/08/08 04:08:01;;;;;;;2.20;1.73;;;19.20;72.80;;;;;;5011686;28;20239;-72
2023/08/08 04:10:27;;;;;;;1.93;1.73;;;19.20;72.90;;;;;;5012119;28;20298;-72
2023/08/08 04:12:54;;;;;;;2.40;1.60;;;19.20;72.90;;;;;;5011818;28;20837;-72
2023/08/08 04:15:23;;;;;;;2.77;1.63;;;19.10;73.20;;;;;;5011712;28;20213;-72
2023/08/08 04:17:53;;;;;;;1.80;1.70;;;19.10;73.40;;;;;;5011717;28;20772;-72
2023/08/08 04:20:21;;;;;;;2.10;1.90;;;19.10;73.60;;;;;;5011948;28;20219;-72
2023/08/08 04:22:48;;;;;;;1.90;1.67;;;19.20;73.60;;;;;;5011875;28;20258;-72
2023/08/08 04:25:16;;;;;;;3.00;1.80;;;19.20;73.50;;;;;;5012126;28;20237;-72
2023/08/08 04:27:45;;;;;;;4.23;1.70;;;19.20;73.60;;;;;;5013044;28;20213;-72
2023/08/08 04:30:13;;;;;;;2.77;1.60;;;19.20;73.60;;;;;;5015692;28;20229;-72
2023/08/08 04:32:42;;;;;;;2.00;1.80;;;19.20;73.50;;;;;;5015476;28;20522;-72
2023/08/08 04:35:10;;;;;;;1.80;1.60;;;19.20;73.50;;;;;;5015585;28;20227;-71
2023/08/08 04:37:37;;;;;;;2.13;1.90;;;19.20;73.70;;;;;;5015550;28;20455;-72
2023/08/08 04:40:04;;;;;;;2.47;1.60;;;19.20;73.60;;;;;;5015140;28;20487;-73
2023/08/08 04:42:31;;;;;;;2.03;1.50;;;19.20;73.80;;;;;;5015316;28;20199;-72
2023/08/08 04:44:58;;;;;;;1.80;1.50;;;19.20;73.90;;;;;;5015699;28;20213;-72
2023/08/08 04:47:25;;;;;;;2.37;1.80;;;19.20;73.80;;;;;;5014969;28;20817;-72
2023/08/08 04:49:52;;;;;;;1.80;1.70;;;19.20;73.90;;;;;;5015105;28;20219;-72
2023/08/08 04:52:20;;;;;;;3.10;2.00;;;19.20;74.00;;;;;;5015437;28;20734;-72
2023/08/08 04:54:49;;;;;;;3.30;1.93;;;19.20;74.20;;;;;;5015559;28;20210;-72
2023/08/08 04:57:17;;;;;;;1.97;1.87;;;19.20;74.30;;;;;;5015374;28;20235;-72
2023/08/08 04:59:44;;;;;;;3.77;1.80;;;19.10;74.90;;;;;;5014643;28;20711;-72
2023/08/08 05:02:11;;;;;;;3.03;1.93;;;19.10;74.20;;;;;;5014753;28;20211;-71
2023/08/08 05:04:37;;;;;;;3.23;2.10;;;19.20;74.40;;;;;;5014787;28;20195;-72
2023/08/08 05:07:05;;;;;;;4.23;1.73;;;19.20;74.20;;;;;;5014950;28;20229;-72
2023/08/08 05:09:34;;;;;;;1.97;1.77;;;19.20;74.20;;;;;;5014787;28;20294;-72
2023/08/08 05:12:00;;;;;;;5.17;1.73;;;19.20;74.10;;;;;;5015150;28;20229;-72
2023/08/08 05:14:27;;;;;;;2.97;1.87;;;19.20;74.20;;;;;;5014682;28;20231;-72
2023/08/08 05:16:54;;;;;;;2.50;2.00;;;19.20;75.00;;;;;;5014181;28;20469;-72
2023/08/08 05:19:21;;;;;;;1.93;1.73;;;19.20;74.10;;;;;;5014062;28;20494;-72
2023/08/08 05:21:48;;;;;;;2.37;1.63;;;19.20;74.10;;;;;;5014974;28;20314;-72
2023/08/08 05:24:15;;;;;;;2.20;1.70;;;19.20;74.10;;;;;;5014713;28;20238;-71
2023/08/08 05:26:48;;;;;;;2.23;1.70;;;19.20;74.00;;;;;;5014494;28;20659;-72
2023/08/08 05:29:18;;;;;;;2.77;1.70;;;19.20;74.20;;;;;;5014015;28;20187;-72
2023/08/08 05:31:47;;;;;;;3.40;1.93;;;19.10;74.20;;;;;;5014679;28;20207;-72
2023/08/08 05:34:17;;;;;;;2.60;2.10;;;19.10;74.50;;;;;;5014546;28;20271;-72
2023/08/08 05:36:46;;;;;;;2.13;1.87;;;19.10;74.50;;;;;;5014052;28;20231;-72
2023/08/08 05:39:13;;;;;;;3.33;1.53;;;19.20;74.40;;;;;;5013714;28;20484;-72
2023/08/08 05:41:42;;;;;;;2.93;2.10;;;19.10;74.40;;;;;;5014367;28;20262;-72
2023/08/08 05:44:13;;;;;;;3.13;2.23;;;19.10;74.40;;;;;;5006356;28;20231;-72
2023/08/08 05:46:42;;;;;;;3.87;1.90;;;19.10;74.50;;;;;;5014078;28;20207;-72
2023/08/08 05:49:12;;;;;;;4.70;1.80;;;19.10;75.20;;;;;;5014041;28;20187;-72
2023/08/08 05:51:42;;;;;;;1.73;1.63;;;19.20;74.50;;;;;;5014333;28;20590;-72
2023/08/08 05:54:12;;;;;;;2.00;1.80;;;19.20;74.40;;;;;;5014503;28;20580;-72
2023/08/08 05:56:42;;;;;;;2.00;1.80;;;19.20;75.30;;;;;;5014132;28;20576;-72
2023/08/08 05:59:13;;;;;;;2.40;1.57;;;19.30;74.60;;;;;;5013597;28;20235;-72
2023/08/08 06:01:44;;;;;;;2.47;1.90;;;19.30;74.20;;;;;;5014220;28;20297;-72
2023/08/08 06:04:13;;;;;;;2.63;1.93;;;19.30;74.30;;;;;;5014614;28;20478;-72
2023/08/08 06:06:43;;;;;;;1.90;1.70;;;19.30;74.00;;;;;;5013726;28;20544;-72
2023/08/08 06:09:12;;;;;;;3.17;1.83;;;19.30;73.80;;;;;;5013864;28;20248;-72
2023/08/08 06:11:38;;;;;;;3.27;1.80;;;19.40;74.00;;;;;;5013926;28;20191;-72
2023/08/08 06:14:08;;;;;;;2.40;1.37;;;19.40;73.60;;;;;;5013362;28;20199;-72
2023/08/08 06:16:37;;;;;;;1.93;1.73;;;19.40;73.50;;;;;;5012906;28;20238;-72
2023/08/08 06:19:07;;;;;;;2.00;1.47;;;19.50;73.90;;;;;;5013460;28;20318;-72
2023/08/08 06:21:37;;;;;;;1.97;1.70;;;19.60;73.60;;;;;;5013432;28;20559;-72
2023/08/08 06:24:04;;;;;;;2.80;1.93;;;19.60;73.20;;;;;;5013604;28;20226;-72
2023/08/08 06:26:34;;;;;;;4.17;1.93;;;19.60;73.20;;;;;;5013292;28;20207;-72
2023/08/08 06:29:01;;;;;;;1.87;1.63;;;19.70;72.50;;;;;;5354471;22;20253;-70
2023/08/08 06:31:27;;;;;;;1.73;1.63;;;19.70;72.80;;;;;;5061408;28;21049;-70
2023/08/08 06:33:56;;;;;;;2.40;2.13;;;19.80;73.10;;;;;;5052697;28;20216;-70
2023/08/08 06:36:22;;;;;;;3.10;1.77;;;19.90;72.40;;;;;;5052999;28;20231;-70
2023/08/08 06:38:49;;;;;;;1.80;1.63;;;19.90;72.20;;;;;;5052383;28;20236;-70
2023/08/08 06:41:16;;;;;;;2.63;1.87;;;20.00;72.10;;;;;;5052725;28;20584;-70
2023/08/08 06:43:43;;;;;;;2.00;1.80;;;20.10;72.10;;;;;;5067314;28;20231;-70
2023/08/08 06:46:10;;;;;;;1.87;1.53;;;20.10;71.90;;;;;;5072281;28;20660;-70
2023/08/08 06:48:36;;;;;;;3.23;1.80;;;20.20;71.80;;;;;;5072150;28;20312;-71
2023/08/08 06:51:05;;;;;;;2.73;1.60;;;20.20;71.20;;;;;;5072074;28;20295;-70
2023/08/08 06:53:32;;;;;;;2.27;1.60;;;20.20;71.60;;;;;;5072748;28;20210;-70
2023/08/08 06:55:58;;;;;;;3.03;1.70;;;20.40;71.70;;;;;;5072002;28;20236;-70
2023/08/08 06:58:25;;;;;;;2.67;1.77;;;20.40;70.80;;;;;;5072223;28;20656;-70
2023/08/08 07:00:52;;;;;;;2.80;1.53;;;20.50;70.70;;;;;;5072109;28;20232;-70
2023/08/08 07:03:19;;;;;;;4.10;1.57;;;20.40;70.70;;;;;;5072668;28;20259;-70
2023/08/08 07:05:47;;;;;;;2.43;1.77;;;20.50;71.00;;;;;;5072476;28;20207;-70
2023/08/08 07:08:15;;;;;;;7.20;1.83;;;20.50;70.30;;;;;;5072338;28;20307;-70
2023/08/08 07:10:42;;;;;;;4.30;1.70;;;20.40;70.00;;;;;;5071958;28;20199;-70
2023/08/08 07:13:09;;;;;;;4.37;1.80;;;20.50;70.50;;;;;;5072196;28;20205;-70
2023/08/08 07:15:37;;;;;;;1.73;1.63;;;20.60;70.50;;;;;;5071983;28;20224;-70
2023/08/08 07:18:04;;;;;;;3.23;2.00;;;20.70;70.20;;;;;;5071690;28;20244;-69
2023/08/08 07:20:31;;;;;;;3.40;1.70;;;20.80;70.40;;;;;;5055039;28;20225;-70
2023/08/08 07:22:59;;;;;;;2.00;1.30;;;20.90;70.40;;;;;;5051949;28;20678;-69
2023/08/08 07:25:28;;;;;;;2.67;1.57;;;20.90;69.40;;;;;;5051257;28;20202;-70
2023/08/08 07:27:54;;;;;;;2.47;1.60;;;21.00;69.30;;;;;;5051461;28;20257;-69
2023/08/08 07:30:21;;;;;;;2.07;1.73;;;21.00;68.90;;;;;;5055054;28;20229;-70
2023/08/08 07:32:48;;;;;;;2.10;1.53;;;21.10;69.20;;;;;;5070566;28;20288;-69
2023/08/08 07:35:15;;;;;;;2.93;1.63;;;21.10;68.40;;;;;;5072163;28;20647;-70
2023/08/08 07:37:43;;;;;;;3.93;1.57;;;21.20;69.30;;;;;;5071393;28;20311;-70
2023/08/08 07:40:20;;;;;;;2.17;1.60;;;21.30;68.90;;;;;;5071384;28;20324;-69
2023/08/08 07:42:50;;;;;;;1.47;1.33;;;21.40;68.70;;;;;;5064569;28;20194;-69
2023/08/08 07:45:17;;;;;;;2.50;1.83;;;21.40;67.60;;;;;;5051779;28;20240;-70
2023/08/08 07:47:44;;;;;;;2.43;1.60;;;21.40;67.70;;;;;;5051536;28;20200;-70
2023/08/08 07:50:11;;;;;;;2.37;1.63;;;21.50;67.90;;;;;;5051379;28;20208;-70
2023/08/08 07:52:38;;;;;;;5.20;1.90;;;21.50;68.00;;;;;;5051685;28;20244;-70
2023/08/08 07:55:06;;;;;;;2.50;1.67;;;21.50;67.00;;;;;;5051618;28;20208;-70
2023/08/08 07:57:34;;;;;;;2.97;1.43;;;21.60;67.40;;;;;;5051409;28;20226;-70
2023/08/08 08:00:09;;;;;;;2.03;1.40;;;21.60;66.80;;;;;;5051493;28;20229;-70
2023/08/08 08:02:36;;;;;;;3.07;1.80;;;21.70;66.70;;;;;;5062458;28;20235;-70
2023/08/08 08:05:05;;;;;;;3.23;1.70;;;21.80;67.00;;;;;;5076102;28;20572;-70
2023/08/08 08:07:32;;;;;;;3.50;1.70;;;22.00;67.00;;;;;;5075608;28;20607;-70
2023/08/08 08:09:59;;;;;;;2.50;1.57;;;21.90;64.20;;;;;;5075167;28;20193;-71
2023/08/08 08:12:25;;;;;;;4.03;1.70;;;21.80;64.10;;;;;;5075749;28;20213;-71
2023/08/08 08:14:52;;;;;;;1.70;1.30;;;21.70;64.90;;;;;;5075668;28;20216;-71
2023/08/08 08:17:20;;;;;;;1.93;1.50;;;21.80;65.10;;;;;;5074969;28;20217;-70
2023/08/08 08:19:47;;;;;;;1.97;1.37;;;22.00;65.00;;;;;;5075390;28;20232;-70
2023/08/08 08:22:14;;;;;;;1.43;1.30;;;22.10;65.00;;;;;;5075877;28;20211;-70
2023/08/08 08:24:41;;;;;;;2.80;1.50;;;22.30;64.80;;;;;;5074950;28;20704;-70
2023/08/08 08:27:08;;;;;;;4.10;1.20;;;22.30;64.90;;;;;;5075087;28;20223;-69
2023/08/08 08:29:35;;;;;;;3.73;1.73;;;22.40;64.80;;;;;;5074860;28;20232;-70
2023/08/08 08:32:01;;;;;;;3.10;1.97;;;22.60;64.90;;;;;;5071893;28;20530;-70
2023/08/08 08:34:30;;;;;;;2.40;1.50;;;22.60;63.70;;;;;;5055568;28;20218;-71
2023/08/08 08:36:57;;;;;;;2.00;1.50;;;22.60;64.20;;;;;;5055293;28;20205;-71
2023/08/08 08:39:24;;;;;;;3.20;1.50;;;22.60;63.70;;;;;;5054844;28;20292;-70
2023/08/08 08:41:55;;;;;;;1.70;1.60;;;22.60;63.60;;;;;;5054818;28;20231;-70
2023/08/08 08:44:22;;;;;;;2.33;1.60;;;22.60;64.30;;;;;;5055304;28;20206;-70
2023/08/08 08:46:51;;;;;;;2.50;1.63;;;22.60;64.40;;;;;;5054579;28;20319;-70
2023/08/08 08:49:20;;;;;;;1.73;1.63;;;22.70;65.00;;;;;;5054625;28;20297;-70
2023/08/08 08:51:48;;;;;;;2.30;1.70;;;22.70;63.20;;;;;;5054825;28;20574;-70
2023/08/08 08:54:15;;;;;;;2.53;1.70;;;22.60;63.10;;;;;;5066388;28;20584;-71
2023/08/08 08:56:43;;;;;;;3.60;1.80;;;22.60;64.10;;;;;;5074227;28;20299;-70
2023/08/08 08:59:10;;;;;;;4.03;1.90;;;22.60;63.50;;;;;;5074457;28;20299;-69
2023/08/08 09:01:37;;;;;;;1.83;1.67;;;22.80;63.80;;;;;;5074952;28;20592;-69
2023/08/08 09:04:06;;;;;;;2.93;1.80;;;22.80;63.20;;;;;;5074993;28;20228;-69
2023/08/08 09:06:33;;;;;;;4.23;1.53;;;22.80;63.80;;;;;;5074885;28;20240;-71
2023/08/08 09:09:02;;;;;;;2.37;1.50;;;23.00;63.30;;;;;;5074196;28;20315;-70
2023/08/08 09:11:29;;;;;;;2.17;1.60;;;22.90;62.60;;;;;;5074516;28;20606;-71
2023/08/08 09:13:56;;;;;;;2.40;1.97;;;23.00;62.90;;;;;;5073510;28;20743;-70
2023/08/08 09:16:23;;;;;;;2.33;1.60;;;23.00;61.70;;;;;;5074639;28;20217;-70
2023/08/08 09:18:51;;;;;;;2.00;1.83;;;23.00;62.60;;;;;;5074198;28;20208;-70
2023/08/08 09:21:19;;;;;;;2.93;2.03;;;23.00;61.80;;;;;;5074524;28;20645;-70
2023/08/08 09:23:46;;;;;;;1.70;1.60;;;23.00;61.90;;;;;;5067055;28;20627;-71
2023/08/08 09:26:16;;;;;;;1.57;1.47;;;22.90;62.70;;;;;;5054118;28;20229;-71
2023/08/08 09:28:44;;;;;;;2.10;1.60;;;23.00;62.40;;;;;;5053878;28;20240;-69
2023/08/08 09:31:12;;;;;;;1.37;1.27;;;23.10;62.40;;;;;;5054250;28;20252;-70
2023/08/08 09:33:40;;;;;;;2.40;1.70;;;23.20;61.80;;;;;;5054138;28;20221;-71
2023/08/08 09:36:07;;;;;;;2.63;1.53;;;23.30;61.70;;;;;;5054271;28;20233;-69
2023/08/08 09:38:35;;;;;;;2.20;1.57;;;23.20;61.50;;;;;;5054108;28;20637;-70
2023/08/08 09:41:01;;;;;;;2.17;1.70;;;23.30;62.00;;;;;;5053207;28;20226;-70
2023/08/08 09:43:30;;;;;;;4.40;1.80;;;23.40;61.70;;;;;;5066871;28;20220;-71
2023/08/08 09:45:57;;;;;;;2.70;1.77;;;23.60;61.40;;;;;;5074137;28;20292;-69
2023/08/08 09:48:30;;;;;;;3.23;1.80;;;23.70;62.50;;;;;;5073788;28;20229;-70
2023/08/08 09:50:59;;;;;;;5.20;1.73;;;23.90;60.70;;;;;;5073858;28;20276;-71
2023/08/08 09:53:26;;;;;;;4.20;1.63;;;24.10;60.00;;;;;;5072958;28;20256;-71
2023/08/08 09:55:55;;;;;;;5.03;1.60;;;24.10;58.80;;;;;;5073537;28;20205;-70
2023/08/08 09:58:23;;;;;;;2.63;1.80;;;24.10;59.10;;;;;;5073448;28;20232;-71
2023/08/08 10:00:52;;;;;;;2.20;1.67;;;24.20;59.00;;;;;;5073494;28;20300;-71
2023/08/08 10:03:19;;;;;;;5.30;1.93;;;24.30;59.40;;;;;;5073615;28;20211;-70
2023/08/08 10:05:46;;;;;;;2.47;1.57;;;24.30;59.60;;;;;;5073366;28;20211;-70
2023/08/08 10:08:16;;;;;;;2.13;1.50;;;24.20;57.80;;;;;;5072978;28;20756;-70
2023/08/08 10:10:45;;;;;;;3.40;1.57;;;24.00;55.50;;;;;;5073208;28;20327;-71
2023/08/08 10:13:20;;;;;;;3.10;1.27;;;23.90;55.20;;;;;;5073611;28;20244;-70
2023/08/08 10:15:46;;;;;;;1.33;1.20;;;24.10;56.30;;;;;;5073317;28;20228;-70
2023/08/08 10:18:15;;;;;;;2.60;1.83;;;24.10;56.00;;;;;;5073278;28;20215;-70
2023/08/08 10:20:43;;;;;;;3.17;1.60;;;24.20;56.10;;;;;;5072887;28;20312;-72
2023/08/08 10:23:11;;;;;;;2.80;1.70;;;24.20;55.70;;;;;;5071268;28;20220;-70
2023/08/08 10:25:37;;;;;;;1.40;1.30;;;24.20;55.80;;;;;;5052015;28;20691;-70
2023/08/08 10:28:06;;;;;;;2.57;1.60;;;24.20;55.70;;;;;;5067585;28;20201;-71
2023/08/08 10:30:43;;;;;;;2.00;1.50;;;24.40;55.70;;;;;;5053916;28;20194;-70
2023/08/08 10:33:18;;;;;;;2.30;1.60;;;24.40;54.40;;;;;;5053022;28;20233;-70
2023/08/08 10:35:55;;;;;;;1.60;1.40;;;24.50;54.20;;;;;;5053185;28;20220;-71
2023/08/08 10:38:22;;;;;;;1.30;1.20;;;24.40;53.50;;;;;;5052664;28;20256;-71
2023/08/08 10:40:57;;;;;;;1.60;1.30;;;24.50;52.50;;;;;;5052883;28;20240;-70
2023/08/08 10:43:27;;;;;;;1.77;1.10;;;24.50;52.40;;;;;;5064993;28;20235;-70
2023/08/08 10:45:57;;;;;;;2.50;1.33;;;24.60;51.40;;;;;;5072819;28;20197;-70
2023/08/08 10:48:26;;;;;;;1.83;1.00;;;24.70;50.80;;;;;;5072567;28;20223;-70
2023/08/08 10:50:55;;;;;;;1.53;1.33;;;24.80;50.00;;;;;;5072466;28;20216;-70
2023/08/08 10:53:26;;;;;;;2.93;1.20;;;24.90;50.10;;;;;;5071873;28;20559;-70
2023/08/08 10:55:59;;;;;;;0.93;0.90;;;25.00;50.70;;;;;;5072800;28;20620;-70
2023/08/08 10:58:36;;;;;;;2.10;1.07;;;25.10;50.10;;;;;;5072481;28;20262;-70
2023/08/08 11:01:05;;;;;;;2.03;1.20;;;25.20;51.10;;;;;;5072052;28;20238;-69
2023/08/08 11:03:34;;;;;;;2.23;1.20;;;25.30;50.80;;;;;;5072400;28;20209;-70
2023/08/08 11:06:03;;;;;;;1.70;1.17;;;25.40;50.70;;;;;;5072093;28;20235;-70
2023/08/08 11:08:31;;;;;;;1.33;1.10;;;25.40;47.90;;;;;;5071711;28;20683;-70
2023/08/08 11:10:59;;;;;;;1.17;1.07;;;25.40;49.10;;;;;;5071892;28;20685;-70
2023/08/08 11:13:26;;;;;;;1.57;1.20;;;25.50;49.20;;;;;;5072143;28;20239;-70
2023/08/08 11:15:54;;;;;;;1.43;1.23;;;25.60;48.00;;;;;;5072507;28;20306;-71
2023/08/08 11:18:21;;;;;;;1.40;1.30;;;25.60;47.00;;;;;;5072252;28;20288;-70
2023/08/08 11:20:50;;;;;;;2.17;1.70;;;25.50;45.70;;;;;;5071334;28;20696;-72
2023/08/08 11:23:17;;;;;;;1.00;1.00;;;25.40;46.40;;;;;;5069654;28;20291;-71
2023/08/08 11:25:46;;;;;;;1.33;1.23;;;25.40;47.90;;;;;;5052114;28;20689;-70
2023/08/08 11:28:13;;;;;;;1.70;1.60;;;25.50;48.40;;;;;;5051417;28;20226;-69
2023/08/08 11:30:43;;;;;;;1.83;1.20;;;25.50;47.60;;;;;;5034473;28;20186;-69
2023/08/08 11:33:10;;;;;;;1.27;1.17;;;25.50;47.00;;;;;;5051924;28;20275;-70
2023/08/08 11:35:37;;;;;;;1.83;1.40;;;25.50;47.30;;;;;;5051913;28;20217;-70
2023/08/08 11:38:06;;;;;;;1.93;1.30;;;25.60;48.20;;;;;;5051653;28;20241;-70
2023/08/08 11:40:34;;;;;;;1.50;1.27;;;25.70;47.40;;;;;;5051806;28;20548;-70
2023/08/08 11:43:01;;;;;;;1.27;1.17;;;26.00;48.30;;;;;;5061000;28;20207;-70
2023/08/08 11:45:28;;;;;;;1.40;1.13;;;26.30;48.50;;;;;;5072032;28;20235;-71
2023/08/08 11:47:56;;;;;;;1.87;1.30;;;26.40;47.40;;;;;;5071501;28;20306;-71
2023/08/08 11:50:25;;;;;;;1.87;1.00;;;26.50;47.20;;;;;;5071614;28;20227;-71
2023/08/08 11:52:53;;;;;;;1.30;1.13;;;26.40;47.90;;;;;;5072136;28;20203;-70
2023/08/08 11:55:23;;;;;;;2.37;1.23;;;26.30;46.80;;;;;;5070900;28;20588;-71
2023/08/08 11:57:53;;;;;;;2.50;1.10;;;26.30;48.00;;;;;;5071344;28;20237;-70
2023/08/08 12:00:20;;;;;;;2.03;1.43;;;26.40;46.10;;;;;;5071558;28;20217;-70
2023/08/08 12:02:47;;;;;;;2.33;1.23;;;26.30;47.20;;;;;;5071692;28;20236;-70
2023/08/08 12:05:16;;;;;;;1.90;1.30;;;26.30;46.60;;;;;;5071781;28;20312;-70
2023/08/08 12:07:45;;;;;;;1.53;1.30;;;26.10;45.60;;;;;;5071653;28;20241;-70
2023/08/08 12:10:17;;;;;;;2.33;1.17;;;26.10;46.20;;;;;;5071294;28;20212;-69
2023/08/08 12:12:46;;;;;;;1.40;1.30;;;26.10;45.90;;;;;;5064824;28;20229;-70
2023/08/08 12:15:12;;;;;;;1.20;1.10;;;26.10;45.20;;;;;;5051325;28;20222;-70
2023/08/08 12:17:39;;;;;;;1.57;0.90;;;26.00;45.10;;;;;;5051207;28;20201;-71
2023/08/08 12:20:07;;;;;;;1.93;1.20;;;26.10;46.10;;;;;;5051031;28;20202;-71
2023/08/08 12:22:35;;;;;;;2.13;1.30;;;26.10;46.50;;;;;;5051421;28;20230;-71
2023/08/08 12:25:02;;;;;;;1.87;1.47;;;26.20;47.40;;;;;;5051737;28;20333;-71
2023/08/08 12:27:30;;;;;;;1.63;1.20;;;26.30;46.50;;;;;;5051201;28;20201;-71
2023/08/08 12:29:58;;;;;;;1.20;1.10;;;26.20;45.60;;;;;;5050759;28;20324;-70
2023/08/08 12:32:28;;;;;;;1.20;1.10;;;26.50;46.60;;;;;;5051279;28;20305;-70
2023/08/08 12:34:54;;;;;;;2.97;1.50;;;26.60;45.50;;;;;;5050861;28;20705;-70
2023/08/08 12:37:21;;;;;;;1.30;1.20;;;26.50;46.10;;;;;;5051244;28;20236;-70
2023/08/08 12:39:48;;;;;;;4.53;1.40;;;26.60;46.90;;;;;;5051381;28;20222;-70
2023/08/08 12:42:15;;;;;;;1.20;1.10;;;26.60;44.70;;;;;;5051130;28;20708;-70
2023/08/08 12:44:41;;;;;;;2.10;1.60;;;26.60;45.80;;;;;;5051603;28;20206;-72
2023/08/08 12:47:10;;;;;;;1.80;1.13;;;26.50;45.80;;;;;;5051538;28;20246;-70
2023/08/08 12:49:37;;;;;;;1.40;1.10;;;26.60;45.80;;;;;;5053223;28;20203;-71
2023/08/08 12:52:05;;;;;;;1.40;1.30;;;26.60;44.70;;;;;;5055106;28;20228;-70